Strang, Oklahoma
Current Conditions -  °F | °C
As of 7:55 AM on Saturday 25 Oct 2014 (Local Time) from KGCM Reporting Station
Haze Haze  
Wind Chill: 14°   Ceiling: Unl
Heat Index: 14°   Visibility: 4mi
Dew Point: 13°   Wind: 5mph
Humidity: 94%   Direction: 150°SSE
Pressure: 30.1"   Gusts: NA
Location:  36.41°N, 95.13°W
Report Text: KGCM 251255Z AUTO 15004KT 4SM BR CLR 14/13 A3010 RMK AO2
Loading
Personal Weather Stations






























Interactive Weather Map
Tropical Storm Tracking
New forecast layout! Learn more

10-Day Weather Forecast

Advertisements
Track Severe Weather on mobile